Terminal Aerodrome Forecast
Issued by NWS Memphis, TN

Home | Current Version | Previous Version | Text Only | Print | Product List | Glossary On
Versions: 1 2 3 4 5 6 7 8 9 10 11 12 13 14 15 16 17 18
000
FTUS44 KMEG 281739
TAFMKL
TAF
KMKL 281739Z 2818/0118 07006KT P6SM BKN060 OVC250
     FM010600 VRB03KT P6SM VCSH SCT025 OVC040
      TEMPO 0108/0112 BKN025
     FM011500 17005KT 4SM -RA OVC015=

USA.gov is the U.S. government's official web portal to all federal, state and local government web resources and services.